sensor_id;sensor_type;location;lat;lon;timestamp;temperature;humidity
54832;DHT22;40730;53.068;6.572;2023-07-31T00:01:44;15.30;99.90
54832;DHT22;40730;53.068;6.572;2023-07-31T00:04:09;15.30;99.90
54832;DHT22;40730;53.068;6.572;2023-07-31T00:06:35;15.30;99.90
54832;DHT22;40730;53.068;6.572;2023-07-31T00:09:00;15.40;99.90
54832;DHT22;40730;53.068;6.572;2023-07-31T00:11:26;15.20;99.90
54832;DHT22;40730;53.068;6.572;2023-07-31T00:13:53;15.20;99.90
54832;DHT22;40730;53.068;6.572;2023-07-31T00:16:19;15.20;99.90
54832;DHT22;40730;53.068;6.572;2023-07-31T00:18:44;15.20;99.90
54832;DHT22;40730;53.068;6.572;2023-07-31T00:21:10;15.20;99.90
54832;DHT22;40730;53.068;6.572;2023-07-31T00:23:35;15.10;99.90
54832;DHT22;40730;53.068;6.572;2023-07-31T00:26:01;15.10;99.90
54832;DHT22;40730;53.068;6.572;2023-07-31T00:28:26;15.40;99.90
54832;DHT22;40730;53.068;6.572;2023-07-31T00:30:54;15.00;99.90
54832;DHT22;40730;53.068;6.572;2023-07-31T00:33:19;15.00;99.90
54832;DHT22;40730;53.068;6.572;2023-07-31T00:35:45;15.10;99.90
54832;DHT22;40730;53.068;6.572;2023-07-31T00:38:10;15.00;99.90
54832;DHT22;40730;53.068;6.572;2023-07-31T00:40:36;15.00;99.90
54832;DHT22;40730;53.068;6.572;2023-07-31T00:43:03;15.00;99.90
54832;DHT22;40730;53.068;6.572;2023-07-31T00:45:29;15.00;99.90
54832;DHT22;40730;53.068;6.572;2023-07-31T00:47:55;15.00;99.90
54832;DHT22;40730;53.068;6.572;2023-07-31T00:50:24;15.00;99.90
54832;DHT22;40730;53.068;6.572;2023-07-31T00:52:50;15.00;99.90
54832;DHT22;40730;53.068;6.572;2023-07-31T00:55:15;15.00;99.90
54832;DHT22;40730;53.068;6.572;2023-07-31T00:57:42;15.00;99.90
54832;DHT22;40730;53.068;6.572;2023-07-31T01:00:08;15.00;99.90
54832;DHT22;40730;53.068;6.572;2023-07-31T01:02:35;14.90;99.90
54832;DHT22;40730;53.068;6.572;2023-07-31T01:05:01;14.90;99.90
54832;DHT22;40730;53.068;6.572;2023-07-31T01:10:16;14.90;99.90
54832;DHT22;40730;53.068;6.572;2023-07-31T01:12:45;15.00;99.90
54832;DHT22;40730;53.068;6.572;2023-07-31T01:15:12;15.00;99.90
54832;DHT22;40730;53.068;6.572;2023-07-31T01:17:39;14.90;99.90
54832;DHT22;40730;53.068;6.572;2023-07-31T01:20:15;15.00;99.90
54832;DHT22;40730;53.068;6.572;2023-07-31T01:28:56;15.00;99.90
54832;DHT22;40730;53.068;6.572;2023-07-31T01:31:26;15.00;99.90
54832;DHT22;40730;53.068;6.572;2023-07-31T01:33:55;14.90;99.90
54832;DHT22;40730;53.068;6.572;2023-07-31T01:36:21;15.00;99.90
54832;DHT22;40730;53.068;6.572;2023-07-31T01:38:47;15.00;99.90
54832;DHT22;40730;53.068;6.572;2023-07-31T01:41:13;15.00;99.90
54832;DHT22;40730;53.068;6.572;2023-07-31T01:43:39;15.00;99.90
54832;DHT22;40730;53.068;6.572;2023-07-31T01:46:04;15.00;99.90
54832;DHT22;40730;53.068;6.572;2023-07-31T01:48:30;15.00;99.90
54832;DHT22;40730;53.068;6.572;2023-07-31T01:51:01;14.90;99.90
54832;DHT22;40730;53.068;6.572;2023-07-31T01:53:27;15.00;99.90
54832;DHT22;40730;53.068;6.572;2023-07-31T01:55:53;15.00;99.90
54832;DHT22;40730;53.068;6.572;2023-07-31T01:58:18;14.90;99.90
54832;DHT22;40730;53.068;6.572;2023-07-31T02:00:44;15.00;99.90
54832;DHT22;40730;53.068;6.572;2023-07-31T02:03:09;14.90;99.90
54832;DHT22;40730;53.068;6.572;2023-07-31T02:05:35;15.00;99.90
54832;DHT22;40730;53.068;6.572;2023-07-31T02:08:01;14.90;99.90
54832;DHT22;40730;53.068;6.572;2023-07-31T02:10:26;14.90;99.90
54832;DHT22;40730;53.068;6.572;2023-07-31T02:12:52;15.00;99.90
54832;DHT22;40730;53.068;6.572;2023-07-31T02:15:17;14.90;99.90
54832;DHT22;40730;53.068;6.572;2023-07-31T02:17:44;14.90;99.90
54832;DHT22;40730;53.068;6.572;2023-07-31T02:20:10;15.00;99.90
54832;DHT22;40730;53.068;6.572;2023-07-31T02:22:35;14.90;99.90
54832;DHT22;40730;53.068;6.572;2023-07-31T02:25:01;15.00;99.90
54832;DHT22;40730;53.068;6.572;2023-07-31T02:27:26;14.90;99.90
54832;DHT22;40730;53.068;6.572;2023-07-31T02:29:53;14.90;99.90
54832;DHT22;40730;53.068;6.572;2023-07-31T02:32:19;14.90;99.90
54832;DHT22;40730;53.068;6.572;2023-07-31T02:34:45;15.20;99.90
54832;DHT22;40730;53.068;6.572;2023-07-31T02:37:10;14.90;99.90
54832;DHT22;40730;53.068;6.572;2023-07-31T02:39:36;15.20;99.90
54832;DHT22;40730;53.068;6.572;2023-07-31T02:42:02;14.90;99.90
54832;DHT22;40730;53.068;6.572;2023-07-31T02:44:27;14.90;99.90
54832;DHT22;40730;53.068;6.572;2023-07-31T02:46:53;14.90;99.90
54832;DHT22;40730;53.068;6.572;2023-07-31T02:49:19;14.90;99.90
54832;DHT22;40730;53.068;6.572;2023-07-31T02:51:44;14.90;99.90
54832;DHT22;40730;53.068;6.572;2023-07-31T02:54:10;14.90;99.90
54832;DHT22;40730;53.068;6.572;2023-07-31T02:56:36;14.90;99.90
54832;DHT22;40730;53.068;6.572;2023-07-31T02:59:01;15.00;99.90
54832;DHT22;40730;53.068;6.572;2023-07-31T03:01:27;14.90;99.90
54832;DHT22;40730;53.068;6.572;2023-07-31T03:03:52;14.90;99.90
54832;DHT22;40730;53.068;6.572;2023-07-31T03:06:18;14.90;99.90
54832;DHT22;40730;53.068;6.572;2023-07-31T03:08:44;14.90;99.90
54832;DHT22;40730;53.068;6.572;2023-07-31T03:11:09;15.00;99.90
54832;DHT22;40730;53.068;6.572;2023-07-31T03:13:35;15.00;99.90
54832;DHT22;40730;53.068;6.572;2023-07-31T03:16:00;15.00;99.90
54832;DHT22;40730;53.068;6.572;2023-07-31T03:18:26;15.00;99.90
54832;DHT22;40730;53.068;6.572;2023-07-31T03:20:52;15.00;99.90
54832;DHT22;40730;53.068;6.572;2023-07-31T03:23:17;15.00;99.90
54832;DHT22;40730;53.068;6.572;2023-07-31T03:25:56;15.00;99.90
54832;DHT22;40730;53.068;6.572;2023-07-31T03:28:22;15.00;99.90
54832;DHT22;40730;53.068;6.572;2023-07-31T03:30:47;15.00;99.90
54832;DHT22;40730;53.068;6.572;2023-07-31T03:33:13;15.00;99.90
54832;DHT22;40730;53.068;6.572;2023-07-31T03:35:38;15.10;99.90
54832;DHT22;40730;53.068;6.572;2023-07-31T03:38:04;15.20;99.90
54832;DHT22;40730;53.068;6.572;2023-07-31T03:40:29;15.10;99.90
54832;DHT22;40730;53.068;6.572;2023-07-31T03:42:55;15.10;99.90
54832;DHT22;40730;53.068;6.572;2023-07-31T03:45:21;15.10;99.90
54832;DHT22;40730;53.068;6.572;2023-07-31T03:47:46;15.10;99.90
54832;DHT22;40730;53.068;6.572;2023-07-31T03:50:12;15.10;99.90
54832;DHT22;40730;53.068;6.572;2023-07-31T03:52:37;15.20;99.90
54832;DHT22;40730;53.068;6.572;2023-07-31T03:55:03;15.10;99.90
54832;DHT22;40730;53.068;6.572;2023-07-31T03:57:29;15.10;99.90
54832;DHT22;40730;53.068;6.572;2023-07-31T03:59:55;15.10;99.90
54832;DHT22;40730;53.068;6.572;2023-07-31T04:02:20;15.20;99.90
54832;DHT22;40730;53.068;6.572;2023-07-31T04:04:46;15.10;99.90
54832;DHT22;40730;53.068;6.572;2023-07-31T04:07:11;15.20;99.90
54832;DHT22;40730;53.068;6.572;2023-07-31T04:09:37;15.20;99.90
54832;DHT22;40730;53.068;6.572;2023-07-31T04:12:03;15.10;99.90
54832;DHT22;40730;53.068;6.572;2023-07-31T04:14:28;15.20;99.90
54832;DHT22;40730;53.068;6.572;2023-07-31T04:16:54;15.10;99.90
54832;DHT22;40730;53.068;6.572;2023-07-31T04:19:19;15.20;99.90
54832;DHT22;40730;53.068;6.572;2023-07-31T04:21:45;15.20;99.90
54832;DHT22;40730;53.068;6.572;2023-07-31T04:24:11;15.20;99.90
54832;DHT22;40730;53.068;6.572;2023-07-31T04:26:36;15.20;99.90
54832;DHT22;40730;53.068;6.572;2023-07-31T04:29:02;15.20;99.90
54832;DHT22;40730;53.068;6.572;2023-07-31T04:31:27;15.20;99.90
54832;DHT22;40730;53.068;6.572;2023-07-31T04:33:53;15.20;99.90
54832;DHT22;40730;53.068;6.572;2023-07-31T04:36:18;15.30;99.90
54832;DHT22;40730;53.068;6.572;2023-07-31T04:38:44;15.20;99.90
54832;DHT22;40730;53.068;6.572;2023-07-31T04:41:10;15.20;99.90
54832;DHT22;40730;53.068;6.572;2023-07-31T04:43:35;15.20;99.90
54832;DHT22;40730;53.068;6.572;2023-07-31T04:46:04;15.20;99.90
54832;DHT22;40730;53.068;6.572;2023-07-31T04:48:30;15.30;99.90
54832;DHT22;40730;53.068;6.572;2023-07-31T04:50:56;15.20;99.90
54832;DHT22;40730;53.068;6.572;2023-07-31T04:53:21;15.10;99.90
54832;DHT22;40730;53.068;6.572;2023-07-31T04:55:47;15.20;99.90
54832;DHT22;40730;53.068;6.572;2023-07-31T04:58:12;15.20;99.90
54832;DHT22;40730;53.068;6.572;2023-07-31T05:00:38;15.20;99.90
54832;DHT22;40730;53.068;6.572;2023-07-31T05:03:04;15.10;99.90
54832;DHT22;40730;53.068;6.572;2023-07-31T05:05:30;15.10;99.90
54832;DHT22;40730;53.068;6.572;2023-07-31T05:07:56;15.10;99.90
54832;DHT22;40730;53.068;6.572;2023-07-31T05:10:21;15.20;99.90
54832;DHT22;40730;53.068;6.572;2023-07-31T05:12:47;15.20;99.90
54832;DHT22;40730;53.068;6.572;2023-07-31T05:15:12;15.20;99.90
54832;DHT22;40730;53.068;6.572;2023-07-31T05:17:38;15.20;99.90
54832;DHT22;40730;53.068;6.572;2023-07-31T05:20:04;15.20;99.90
54832;DHT22;40730;53.068;6.572;2023-07-31T05:22:30;15.20;99.90
54832;DHT22;40730;53.068;6.572;2023-07-31T05:24:55;15.20;99.90
54832;DHT22;40730;53.068;6.572;2023-07-31T05:27:21;15.20;99.90
54832;DHT22;40730;53.068;6.572;2023-07-31T05:29:47;15.20;99.90
54832;DHT22;40730;53.068;6.572;2023-07-31T05:32:12;15.20;99.90
54832;DHT22;40730;53.068;6.572;2023-07-31T05:34:38;15.30;99.90
54832;DHT22;40730;53.068;6.572;2023-07-31T05:37:04;15.40;99.90
54832;DHT22;40730;53.068;6.572;2023-07-31T05:39:30;15.40;99.90
54832;DHT22;40730;53.068;6.572;2023-07-31T05:41:55;15.40;99.90
54832;DHT22;40730;53.068;6.572;2023-07-31T05:44:21;15.40;99.90
54832;DHT22;40730;53.068;6.572;2023-07-31T05:46:46;15.40;99.90
54832;DHT22;40730;53.068;6.572;2023-07-31T05:49:12;15.50;99.90
54832;DHT22;40730;53.068;6.572;2023-07-31T05:51:38;15.50;99.90
54832;DHT22;40730;53.068;6.572;2023-07-31T05:54:04;15.50;99.90
54832;DHT22;40730;53.068;6.572;2023-07-31T05:56:29;15.60;99.90
54832;DHT22;40730;53.068;6.572;2023-07-31T05:58:55;15.60;99.90
54832;DHT22;40730;53.068;6.572;2023-07-31T06:01:22;15.70;99.90
54832;DHT22;40730;53.068;6.572;2023-07-31T06:03:48;15.70;99.90
54832;DHT22;40730;53.068;6.572;2023-07-31T06:06:13;15.70;99.90
54832;DHT22;40730;53.068;6.572;2023-07-31T06:08:39;15.70;99.90
54832;DHT22;40730;53.068;6.572;2023-07-31T06:11:05;15.80;99.90
54832;DHT22;40730;53.068;6.572;2023-07-31T06:13:31;15.90;99.90
54832;DHT22;40730;53.068;6.572;2023-07-31T06:15:56;16.00;99.90
54832;DHT22;40730;53.068;6.572;2023-07-31T06:18:22;16.00;99.90
54832;DHT22;40730;53.068;6.572;2023-07-31T06:20:48;16.10;99.90
54832;DHT22;40730;53.068;6.572;2023-07-31T06:23:19;16.20;99.90
54832;DHT22;40730;53.068;6.572;2023-07-31T06:25:44;16.30;99.90
54832;DHT22;40730;53.068;6.572;2023-07-31T06:28:10;16.40;99.90
54832;DHT22;40730;53.068;6.572;2023-07-31T06:30:36;16.50;99.90
54832;DHT22;40730;53.068;6.572;2023-07-31T06:33:01;16.50;99.90
54832;DHT22;40730;53.068;6.572;2023-07-31T06:35:27;16.40;99.90
54832;DHT22;40730;53.068;6.572;2023-07-31T06:37:52;16.50;99.90
54832;DHT22;40730;53.068;6.572;2023-07-31T06:40:18;16.50;99.90
54832;DHT22;40730;53.068;6.572;2023-07-31T06:42:44;16.50;99.90
54832;DHT22;40730;53.068;6.572;2023-07-31T06:45:10;16.60;99.90
54832;DHT22;40730;53.068;6.572;2023-07-31T06:47:36;16.60;99.90
54832;DHT22;40730;53.068;6.572;2023-07-31T06:50:01;16.70;99.90
54832;DHT22;40730;53.068;6.572;2023-07-31T06:52:27;16.70;99.90
54832;DHT22;40730;53.068;6.572;2023-07-31T06:55:04;16.70;99.90
54832;DHT22;40730;53.068;6.572;2023-07-31T06:57:30;16.80;99.90
54832;DHT22;40730;53.068;6.572;2023-07-31T06:59:55;16.70;99.90
54832;DHT22;40730;53.068;6.572;2023-07-31T07:02:21;16.90;99.90
54832;DHT22;40730;53.068;6.572;2023-07-31T07:04:46;16.80;99.90
54832;DHT22;40730;53.068;6.572;2023-07-31T07:07:12;16.80;99.90
54832;DHT22;40730;53.068;6.572;2023-07-31T07:09:38;16.90;99.90
54832;DHT22;40730;53.068;6.572;2023-07-31T07:12:03;16.80;99.90
54832;DHT22;40730;53.068;6.572;2023-07-31T07:14:29;16.80;99.90
54832;DHT22;40730;53.068;6.572;2023-07-31T07:16:55;16.80;99.90
54832;DHT22;40730;53.068;6.572;2023-07-31T07:19:20;16.70;99.90
54832;DHT22;40730;53.068;6.572;2023-07-31T07:21:46;16.80;99.90
54832;DHT22;40730;53.068;6.572;2023-07-31T07:24:11;16.60;99.90
54832;DHT22;40730;53.068;6.572;2023-07-31T07:26:37;16.60;99.90
54832;DHT22;40730;53.068;6.572;2023-07-31T07:29:02;16.60;99.90
54832;DHT22;40730;53.068;6.572;2023-07-31T07:31:28;16.50;99.90
54832;DHT22;40730;53.068;6.572;2023-07-31T07:33:54;16.50;99.90
54832;DHT22;40730;53.068;6.572;2023-07-31T07:36:19;16.50;99.90
54832;DHT22;40730;53.068;6.572;2023-07-31T07:38:45;16.50;99.90
54832;DHT22;40730;53.068;6.572;2023-07-31T07:41:11;16.50;99.90
54832;DHT22;40730;53.068;6.572;2023-07-31T07:43:36;16.50;99.90
54832;DHT22;40730;53.068;6.572;2023-07-31T07:46:02;16.50;99.90
54832;DHT22;40730;53.068;6.572;2023-07-31T07:48:27;16.40;99.90
54832;DHT22;40730;53.068;6.572;2023-07-31T07:50:53;16.40;99.90
54832;DHT22;40730;53.068;6.572;2023-07-31T07:53:19;16.40;99.90
54832;DHT22;40730;53.068;6.572;2023-07-31T07:55:44;16.40;99.90
54832;DHT22;40730;53.068;6.572;2023-07-31T07:58:10;16.30;99.90
54832;DHT22;40730;53.068;6.572;2023-07-31T08:00:36;16.30;99.90
54832;DHT22;40730;53.068;6.572;2023-07-31T08:03:01;16.30;99.90
54832;DHT22;40730;53.068;6.572;2023-07-31T08:05:27;16.30;99.90
54832;DHT22;40730;53.068;6.572;2023-07-31T08:07:52;16.40;99.90
54832;DHT22;40730;53.068;6.572;2023-07-31T08:10:18;16.40;99.90
54832;DHT22;40730;53.068;6.572;2023-07-31T08:12:44;16.40;99.90
54832;DHT22;40730;53.068;6.572;2023-07-31T08:15:09;16.40;99.90
54832;DHT22;40730;53.068;6.572;2023-07-31T08:17:35;16.40;99.90
54832;DHT22;40730;53.068;6.572;2023-07-31T08:20:00;16.40;99.90
54832;DHT22;40730;53.068;6.572;2023-07-31T08:22:26;16.50;99.90
54832;DHT22;40730;53.068;6.572;2023-07-31T08:24:52;16.50;99.90
54832;DHT22;40730;53.068;6.572;2023-07-31T08:27:17;16.50;99.90
54832;DHT22;40730;53.068;6.572;2023-07-31T08:29:43;16.50;99.90
54832;DHT22;40730;53.068;6.572;2023-07-31T08:32:08;16.60;99.90
54832;DHT22;40730;53.068;6.572;2023-07-31T08:34:34;16.70;99.90
54832;DHT22;40730;53.068;6.572;2023-07-31T08:37:00;16.60;99.90
54832;DHT22;40730;53.068;6.572;2023-07-31T08:39:25;16.60;99.90
54832;DHT22;40730;53.068;6.572;2023-07-31T08:41:51;16.70;99.90
54832;DHT22;40730;53.068;6.572;2023-07-31T08:44:17;16.70;99.90
54832;DHT22;40730;53.068;6.572;2023-07-31T08:46:44;16.70;99.90
54832;DHT22;40730;53.068;6.572;2023-07-31T08:49:11;16.70;99.90
54832;DHT22;40730;53.068;6.572;2023-07-31T08:51:37;16.80;99.90
54832;DHT22;40730;53.068;6.572;2023-07-31T08:54:03;16.90;99.90
54832;DHT22;40730;53.068;6.572;2023-07-31T08:56:32;16.90;99.90
54832;DHT22;40730;53.068;6.572;2023-07-31T08:59:00;16.90;99.90
54832;DHT22;40730;53.068;6.572;2023-07-31T09:01:29;17.00;99.90
54832;DHT22;40730;53.068;6.572;2023-07-31T09:03:55;17.00;99.90
54832;DHT22;40730;53.068;6.572;2023-07-31T09:06:25;17.10;99.90
54832;DHT22;40730;53.068;6.572;2023-07-31T09:08:51;17.10;99.90
54832;DHT22;40730;53.068;6.572;2023-07-31T09:11:18;17.20;99.90
54832;DHT22;40730;53.068;6.572;2023-07-31T09:13:45;17.30;99.90
54832;DHT22;40730;53.068;6.572;2023-07-31T09:16:12;17.30;99.90
54832;DHT22;40730;53.068;6.572;2023-07-31T09:18:53;17.40;99.90
54832;DHT22;40730;53.068;6.572;2023-07-31T09:21:20;17.50;99.90
54832;DHT22;40730;53.068;6.572;2023-07-31T09:23:47;17.50;99.90
54832;DHT22;40730;53.068;6.572;2023-07-31T09:26:39;17.50;99.90
54832;DHT22;40730;53.068;6.572;2023-07-31T09:29:07;17.50;99.90
54832;DHT22;40730;53.068;6.572;2023-07-31T09:31:43;17.60;99.90
54832;DHT22;40730;53.068;6.572;2023-07-31T09:34:10;17.60;99.90
54832;DHT22;40730;53.068;6.572;2023-07-31T09:36:43;17.70;99.90
54832;DHT22;40730;53.068;6.572;2023-07-31T09:39:14;17.70;99.90
54832;DHT22;40730;53.068;6.572;2023-07-31T09:41:43;17.70;99.90
54832;DHT22;40730;53.068;6.572;2023-07-31T09:44:09;17.70;99.90
54832;DHT22;40730;53.068;6.572;2023-07-31T09:46:35;17.80;99.90
54832;DHT22;40730;53.068;6.572;2023-07-31T09:49:09;17.80;99.90
54832;DHT22;40730;53.068;6.572;2023-07-31T09:51:40;17.90;99.90
54832;DHT22;40730;53.068;6.572;2023-07-31T09:54:16;18.00;99.90
54832;DHT22;40730;53.068;6.572;2023-07-31T09:56:46;18.00;99.90
54832;DHT22;40730;53.068;6.572;2023-07-31T09:59:17;18.10;99.90
54832;DHT22;40730;53.068;6.572;2023-07-31T10:01:44;18.30;99.90
54832;DHT22;40730;53.068;6.572;2023-07-31T10:04:14;18.40;99.90
54832;DHT22;40730;53.068;6.572;2023-07-31T10:06:43;18.40;99.90
54832;DHT22;40730;53.068;6.572;2023-07-31T10:09:11;18.40;99.90
54832;DHT22;40730;53.068;6.572;2023-07-31T10:11:43;18.40;99.90
54832;DHT22;40730;53.068;6.572;2023-07-31T10:14:11;18.30;99.90
54832;DHT22;40730;53.068;6.572;2023-07-31T10:16:38;18.30;99.90
54832;DHT22;40730;53.068;6.572;2023-07-31T10:19:05;18.20;99.90
54832;DHT22;40730;53.068;6.572;2023-07-31T10:21:32;18.20;99.90
54832;DHT22;40730;53.068;6.572;2023-07-31T10:24:04;18.20;99.90
54832;DHT22;40730;53.068;6.572;2023-07-31T10:26:31;18.30;99.90
54832;DHT22;40730;53.068;6.572;2023-07-31T10:28:58;18.30;99.90
54832;DHT22;40730;53.068;6.572;2023-07-31T10:31:24;18.20;99.90
54832;DHT22;40730;53.068;6.572;2023-07-31T10:33:51;18.20;99.90
54832;DHT22;40730;53.068;6.572;2023-07-31T10:36:19;18.20;99.90
54832;DHT22;40730;53.068;6.572;2023-07-31T10:38:46;18.20;99.90
54832;DHT22;40730;53.068;6.572;2023-07-31T10:41:13;18.20;99.90
54832;DHT22;40730;53.068;6.572;2023-07-31T10:43:39;18.20;99.90
54832;DHT22;40730;53.068;6.572;2023-07-31T10:46:23;18.20;99.90
54832;DHT22;40730;53.068;6.572;2023-07-31T10:49:01;18.30;99.90
54832;DHT22;40730;53.068;6.572;2023-07-31T10:51:34;18.30;99.90
54832;DHT22;40730;53.068;6.572;2023-07-31T10:54:13;18.40;99.90
54832;DHT22;40730;53.068;6.572;2023-07-31T10:56:44;18.30;99.90
54832;DHT22;40730;53.068;6.572;2023-07-31T10:59:10;18.20;99.90
54832;DHT22;40730;53.068;6.572;2023-07-31T11:01:54;18.30;99.90
54832;DHT22;40730;53.068;6.572;2023-07-31T11:04:26;18.20;99.90
54832;DHT22;40730;53.068;6.572;2023-07-31T11:06:59;18.20;99.90
54832;DHT22;40730;53.068;6.572;2023-07-31T11:09:32;18.10;99.90
54832;DHT22;40730;53.068;6.572;2023-07-31T11:12:01;18.20;99.90
54832;DHT22;40730;53.068;6.572;2023-07-31T11:14:27;18.20;99.90
54832;DHT22;40730;53.068;6.572;2023-07-31T11:16:53;18.20;99.90
54832;DHT22;40730;53.068;6.572;2023-07-31T11:19:23;18.20;99.90
54832;DHT22;40730;53.068;6.572;2023-07-31T11:21:49;18.10;99.90
54832;DHT22;40730;53.068;6.572;2023-07-31T11:24:14;18.10;99.90
54832;DHT22;40730;53.068;6.572;2023-07-31T11:26:51;18.00;99.90
54832;DHT22;40730;53.068;6.572;2023-07-31T11:29:18;17.80;99.90
54832;DHT22;40730;53.068;6.572;2023-07-31T11:31:44;17.70;99.90
54832;DHT22;40730;53.068;6.572;2023-07-31T11:34:10;17.70;99.90
54832;DHT22;40730;53.068;6.572;2023-07-31T11:36:36;17.70;99.90
54832;DHT22;40730;53.068;6.572;2023-07-31T11:39:09;17.80;99.90
54832;DHT22;40730;53.068;6.572;2023-07-31T11:41:35;17.80;99.90
54832;DHT22;40730;53.068;6.572;2023-07-31T11:44:01;17.80;99.90
54832;DHT22;40730;53.068;6.572;2023-07-31T11:46:29;18.00;99.90
54832;DHT22;40730;53.068;6.572;2023-07-31T11:48:59;18.10;99.90
54832;DHT22;40730;53.068;6.572;2023-07-31T11:51:25;18.50;99.90
54832;DHT22;40730;53.068;6.572;2023-07-31T11:53:56;18.70;99.90
54832;DHT22;40730;53.068;6.572;2023-07-31T11:56:24;19.10;99.90
54832;DHT22;40730;53.068;6.572;2023-07-31T11:58:54;19.20;99.90
54832;DHT22;40730;53.068;6.572;2023-07-31T12:01:21;19.50;99.90
54832;DHT22;40730;53.068;6.572;2023-07-31T12:03:48;19.70;99.90
54832;DHT22;40730;53.068;6.572;2023-07-31T12:06:14;20.00;99.90
54832;DHT22;40730;53.068;6.572;2023-07-31T12:08:40;20.30;99.90
54832;DHT22;40730;53.068;6.572;2023-07-31T12:11:08;20.40;99.90
54832;DHT22;40730;53.068;6.572;2023-07-31T12:13:38;20.40;99.90
54832;DHT22;40730;53.068;6.572;2023-07-31T12:16:04;20.20;99.90
54832;DHT22;40730;53.068;6.572;2023-07-31T12:18:34;20.10;99.90
54832;DHT22;40730;53.068;6.572;2023-07-31T12:21:02;20.00;99.90
54832;DHT22;40730;53.068;6.572;2023-07-31T12:23:31;19.80;99.90
54832;DHT22;40730;53.068;6.572;2023-07-31T12:26:13;19.60;99.90
54832;DHT22;40730;53.068;6.572;2023-07-31T12:28:50;19.40;99.90
54832;DHT22;40730;53.068;6.572;2023-07-31T12:31:21;19.20;99.90
54832;DHT22;40730;53.068;6.572;2023-07-31T12:33:49;19.00;99.90
54832;DHT22;40730;53.068;6.572;2023-07-31T12:36:23;18.90;99.90
54832;DHT22;40730;53.068;6.572;2023-07-31T12:38:50;18.80;99.90
54832;DHT22;40730;53.068;6.572;2023-07-31T12:41:16;18.80;99.90
54832;DHT22;40730;53.068;6.572;2023-07-31T12:43:45;18.70;99.90
54832;DHT22;40730;53.068;6.572;2023-07-31T12:46:11;18.70;99.90
54832;DHT22;40730;53.068;6.572;2023-07-31T12:48:38;18.50;99.90
54832;DHT22;40730;53.068;6.572;2023-07-31T12:51:03;18.40;99.90
54832;DHT22;40730;53.068;6.572;2023-07-31T12:53:29;18.30;99.90
54832;DHT22;40730;53.068;6.572;2023-07-31T12:55:56;18.20;99.90
54832;DHT22;40730;53.068;6.572;2023-07-31T12:58:22;18.10;99.90
54832;DHT22;40730;53.068;6.572;2023-07-31T13:00:48;18.00;99.90
54832;DHT22;40730;53.068;6.572;2023-07-31T13:03:13;18.00;99.90
54832;DHT22;40730;53.068;6.572;2023-07-31T13:05:39;18.10;99.90
54832;DHT22;40730;53.068;6.572;2023-07-31T13:08:04;18.10;99.90
54832;DHT22;40730;53.068;6.572;2023-07-31T13:10:30;18.20;99.90
54832;DHT22;40730;53.068;6.572;2023-07-31T13:12:56;18.30;99.90
54832;DHT22;40730;53.068;6.572;2023-07-31T13:15:22;18.30;99.90
54832;DHT22;40730;53.068;6.572;2023-07-31T13:17:48;18.40;99.90
54832;DHT22;40730;53.068;6.572;2023-07-31T13:20:13;18.50;99.90
54832;DHT22;40730;53.068;6.572;2023-07-31T13:22:39;18.60;99.90
54832;DHT22;40730;53.068;6.572;2023-07-31T13:25:05;18.60;99.90
54832;DHT22;40730;53.068;6.572;2023-07-31T13:27:31;18.60;99.90
54832;DHT22;40730;53.068;6.572;2023-07-31T13:29:57;18.60;99.90
54832;DHT22;40730;53.068;6.572;2023-07-31T13:32:23;18.60;99.90
54832;DHT22;40730;53.068;6.572;2023-07-31T13:34:49;18.70;99.90
54832;DHT22;40730;53.068;6.572;2023-07-31T13:37:15;18.80;99.90
54832;DHT22;40730;53.068;6.572;2023-07-31T13:39:41;18.80;99.90
54832;DHT22;40730;53.068;6.572;2023-07-31T13:42:08;18.80;99.90
54832;DHT22;40730;53.068;6.572;2023-07-31T13:44:34;18.80;99.90
54832;DHT22;40730;53.068;6.572;2023-07-31T13:47:00;18.80;99.90
54832;DHT22;40730;53.068;6.572;2023-07-31T13:49:27;18.90;99.90
54832;DHT22;40730;53.068;6.572;2023-07-31T13:51:52;19.00;99.90
54832;DHT22;40730;53.068;6.572;2023-07-31T13:54:18;19.20;99.90
54832;DHT22;40730;53.068;6.572;2023-07-31T13:56:44;19.30;99.90
54832;DHT22;40730;53.068;6.572;2023-07-31T13:59:10;19.30;99.90
54832;DHT22;40730;53.068;6.572;2023-07-31T14:01:36;19.30;99.90
54832;DHT22;40730;53.068;6.572;2023-07-31T14:04:02;19.30;99.90
54832;DHT22;40730;53.068;6.572;2023-07-31T14:06:28;19.40;99.90
54832;DHT22;40730;53.068;6.572;2023-07-31T14:08:53;19.40;99.90
54832;DHT22;40730;53.068;6.572;2023-07-31T14:11:19;19.50;99.90
54832;DHT22;40730;53.068;6.572;2023-07-31T14:13:45;19.60;99.90
54832;DHT22;40730;53.068;6.572;2023-07-31T14:16:10;19.60;99.90
54832;DHT22;40730;53.068;6.572;2023-07-31T14:18:36;19.50;99.90
54832;DHT22;40730;53.068;6.572;2023-07-31T14:21:01;19.40;99.90
54832;DHT22;40730;53.068;6.572;2023-07-31T14:23:27;19.40;99.90
54832;DHT22;40730;53.068;6.572;2023-07-31T14:25:53;19.40;99.90
54832;DHT22;40730;53.068;6.572;2023-07-31T14:28:18;19.40;99.90
54832;DHT22;40730;53.068;6.572;2023-07-31T14:30:44;19.40;99.90
54832;DHT22;40730;53.068;6.572;2023-07-31T14:33:10;19.50;99.90
54832;DHT22;40730;53.068;6.572;2023-07-31T14:35:35;19.50;99.90
54832;DHT22;40730;53.068;6.572;2023-07-31T14:38:01;19.50;99.90
54832;DHT22;40730;53.068;6.572;2023-07-31T14:40:27;19.50;99.90
54832;DHT22;40730;53.068;6.572;2023-07-31T14:42:53;19.50;99.90
54832;DHT22;40730;53.068;6.572;2023-07-31T14:45:18;19.50;99.90
54832;DHT22;40730;53.068;6.572;2023-07-31T14:47:44;19.40;99.90
54832;DHT22;40730;53.068;6.572;2023-07-31T14:50:10;19.40;99.90
54832;DHT22;40730;53.068;6.572;2023-07-31T14:52:36;19.30;99.90
54832;DHT22;40730;53.068;6.572;2023-07-31T14:55:02;19.30;99.90
54832;DHT22;40730;53.068;6.572;2023-07-31T14:57:27;19.30;99.90
54832;DHT22;40730;53.068;6.572;2023-07-31T14:59:53;19.20;99.90
54832;DHT22;40730;53.068;6.572;2023-07-31T15:02:18;19.20;99.90
54832;DHT22;40730;53.068;6.572;2023-07-31T15:04:44;19.10;99.90
54832;DHT22;40730;53.068;6.572;2023-07-31T15:07:10;19.00;99.90
54832;DHT22;40730;53.068;6.572;2023-07-31T15:09:35;19.10;99.90
54832;DHT22;40730;53.068;6.572;2023-07-31T15:12:01;19.10;99.90
54832;DHT22;40730;53.068;6.572;2023-07-31T15:14:27;19.10;99.90
54832;DHT22;40730;53.068;6.572;2023-07-31T15:16:53;19.10;99.90
54832;DHT22;40730;53.068;6.572;2023-07-31T15:19:19;19.10;99.90
54832;DHT22;40730;53.068;6.572;2023-07-31T15:21:45;19.10;99.90
54832;DHT22;40730;53.068;6.572;2023-07-31T15:24:10;19.10;99.90
54832;DHT22;40730;53.068;6.572;2023-07-31T15:26:37;19.10;99.90
54832;DHT22;40730;53.068;6.572;2023-07-31T15:29:04;19.10;99.90
54832;DHT22;40730;53.068;6.572;2023-07-31T15:31:45;19.10;99.90
54832;DHT22;40730;53.068;6.572;2023-07-31T15:34:12;19.10;99.90
54832;DHT22;40730;53.068;6.572;2023-07-31T15:36:37;19.10;99.90